ADDS METAR Data INFO
IDs: Format: Raw Decoded Include TAF

Data at: 0644 UTC 23 Feb 2018

KFNB 230631Z AUTO 26003KT 4SM BR OVC004 00/00 A3018 RMK AO2 CIG 003V010 T00000000 $
KFNB 230616Z AUTO 00000KT 3SM BR BKN003 OVC008 00/00 A3018 RMK AO2 CIG 003V007 T00000000 $
KFNB 230603Z AUTO 26004KT 2 1/2SM BR OVC003 00/00 A3018 RMK AO2 T00000000 $
KFNB 230553Z AUTO 24004KT 2 1/2SM BR OVC004 00/00 A3018 RMK AO2 SLP228 P0002 60016 I1000 I6008 T00000000 10000 21006 400001044 55006 $
KFNB 230502Z AUTO 00000KT 2SM BR BKN004 OVC013 M01/ A3017 RMK AO2 P0001 I1000 T1006 $
KFNB 230453Z AUTO 00000KT 1 3/4SM BR BKN004 OVC013 M01/M01 A3017 RMK AO2 UPE35 SLP227 P0003 T10061006 $
KFNB 230353Z AUTO 11004KT 1 3/4SM UP BR OVC004 00/00 A3018 RMK AO2 UPB38FZRAE38 SLP229 P0007 I1003 T00000000
KFNB 230346Z AUTO 00000KT 1 1/2SM UP BR BKN004 OVC021 00/00 A3018 RMK AO2 UPB38FZRAE38 P0006 I1003 T00000000
KFNB 230338Z AUTO 00000KT 2SM UP BR BKN004 BKN018 OVC023 00/00 A3018 RMK AO2 UPB38FZRAE38 P0005 I1003 T00000000
KFNB 230332Z AUTO 00000KT 2SM -FZRA BR SCT005 OVC025 00/00 A3018 RMK AO2 P0004 I1003 T00000000
KFNB 230328Z AUTO 00000KT 1 3/4SM FZRA BR SCT005 OVC023 00/00 A3018 RMK AO2 P0004 I1003 T00000000
KFNB 230314Z AUTO 11004KT 2SM -FZRA BR SCT004 OVC026 00/M01 A3018 RMK AO2 P0002 I1001 T00001006
KFNB 230310Z AUTO 11005KT 1 3/4SM -FZRA BR BKN004 OVC024 00/M01 A3018 RMK AO2 P0001 I1001 T00001006
KFNB 230303Z AUTO 00000KT 2SM -FZRA BR OVC004 00/M01 A3019 RMK AO2 P0001 I1001 T00001006
KFNB 230253Z AUTO 00000KT 1 3/4SM -FZRA BR BKN004 OVC009 M01/M01 A3019 RMK AO2 SLP235 P0004 60004 I1004 I3005 T10061006 50006
KFNB 230248Z AUTO 00000KT 1 3/4SM FZRA BR OVC004 M01/M01 A3019 RMK AO2 P0003 I1004
KFNB 230244Z AUTO 00000KT 2SM -FZRA BR OVC004 00/M01 A3019 RMK AO2 P0003 I1003 T00001006
KFNB 230234Z AUTO 24004KT 2SM BR OVC004 00/M01 A3020 RMK AO2 FZRAE34 P0002 I1002 T00001011
KFNB 230226Z AUTO 00000KT 1 3/4SM -FZRA BR OVC004 M01/M01 A3019 RMK AO2 P0001 I1002 T10061006
KFNB 230219Z AUTO 26003KT 2SM -FZRA BR OVC004 00/M01 A3019 RMK AO2 P0001 I1001 T00001006
KFNB 230153Z AUTO 23004KT 4SM -FZRA BR OVC004 M01/M01 A3020 RMK AO2 UPB16E21FZRAB0056E16B39 SLP237 P0000 I1000 T10061011
KFNB 230145Z AUTO 00000KT 4SM -FZRA BR OVC004 M01/M01 A3019 RMK AO2 UPB16E21FZRAB0056E16B39 P0000 I1000 T10061011
KFNB 230122Z AUTO 18004KT 5SM BR OVC004 M01/M01 A3019 RMK AO2 UPB16E21FZRAB0056E16 P0000 I1000 T10061011
KFNB 230102Z AUTO 15005KT 4SM -FZRA BR OVC004 M01/M01 A3018 RMK AO2 FZRAB0056 P0000 I1000 T10061011
KFNB 230053Z AUTO 14005KT 4SM BR OVC004 M01/M01 A3018 RMK AO2 UPE00B15E39FZRAB00E15B39E49 SLP230 P0000 I1001 T10061011
KFNB 230045Z AUTO 16007KT 4SM -FZRA BR OVC004 M01/M01 A3019 RMK AO2 UPE00B15E39FZRAB00E15B39 P0000 I1001 T10061011
KFNB 230016Z AUTO 14007KT 5SM UP BR OVC004 M01/M02 A3018 RMK AO2 UPE00B15FZRAB00E15 P0000 I1000 T10061017
KFNB 230006Z AUTO 13009KT 5SM -FZRA BR OVC005 M01/M02 A3018 RMK AO2 UPE00FZRAB00 P0000 I1000 T10061017
KFNB 222353Z AUTO 12006KT 4SM UP BR OVC005 M01/M02 A3018 RMK AO2 UPB20E34B50 SLP230 P0000 60000 I1001 I6001 T10061017 11006 21017 56018
KFNB 222253Z AUTO 11008KT 7SM OVC006 M01/M02 A3018 RMK AO2 SLP232 T10061017
KFNB 222153Z AUTO 10008KT 8SM OVC005 M01/M02 A3020 RMK AO2 SLP238 T10061017
KFNB 222053Z AUTO 10009KT 8SM OVC006 M01/M02 A3023 RMK AO2 SLP248 T10111017 58037
KFNB 221953Z AUTO 11007KT 10SM OVC006 M01/M02 A3028 RMK AO2 PRESFR SLP267 T10111022
KFNB 221853Z AUTO 11008KT 3SM BR OVC005 M02/M02 A3032 RMK AO2 CIG 003V008 SLP280 T10171022
KFNB 221828Z AUTO 11008KT 6SM BR OVC006 M02/M03 A3034 RMK AO2 CIG 004V008 T10171028
KFNB 221807Z AUTO 12008KT 4SM BR OVC004 M02/M03 A3035 RMK AO2 T10171028
KFNB 221753Z AUTO 10007KT 2SM BR BKN004 OVC008 M02/M03 A3034 RMK AO2 UPB08E13B43E53FZRAB13E29B41E43 CIG 003V007 SLP287 P0001 60001 I1001 I6003 T10171028 11017 21039 58008
KFNB 221748Z AUTO 12006KT 1 3/4SM UP BR OVC006 M02/M03 A3036 RMK AO2 UPB08E13B43FZRAB13E29B41E43 CIG 003V009 P0000 I1001
KFNB 221729Z AUTO 12006KT 2SM BR OVC005 M02/M03 A3036 RMK AO2 UPB08E13FZRAB13E29 CIG 004V008 P0000 I1001 T10221028
KFNB 221713Z AUTO 12005KT 1 3/4SM -FZRA BR OVC006 M02/M03 A3037 RMK AO2 UPB08E13FZRAB13 P0000 I1000 T10221028
KFNB 221653Z AUTO 13005KT 6SM BR OVC006 M02/M03 A3039 RMK AO2 UPB02E05FZRAB05E12 SLP303 P0000 I1000 T10221033
KFNB 221618Z AUTO 09006KT 8SM OVC006 M02/M03 A3038 RMK AO2 UPB02E05FZRAB05E12 P0000 I1000 T10221033
KFNB 221611Z AUTO 10006KT 5SM -FZRA BR OVC006 M02/M03 A3038 RMK AO2 UPB02E05FZRAB05 P0000 I1000 T10221033
KFNB 221553Z AUTO 11006KT 4SM BR OVC007 M02/M03 A3039 RMK AO2 UPB30E40 SLP303 P0000 T10221033
KFNB 221453Z AUTO 09011KT 4SM BR OVC007 M03/M04 A3037 RMK AO2 FZRAB16E24B39E53 CIG 005V009 SLP295 P0000 60000 I1001 I3002 T10281039 58015
KFNB 221445Z AUTO 09009KT 3SM -FZRA BR OVC007 M03/M04 A3037 RMK AO2 FZRAB16E24B39 CIG 005V011 P0000 I1001 T10281039
KFNB 221430Z AUTO 10011KT 4SM BR BKN008 OVC013 M03/M04 A3038 RMK AO2 FZRAB16E24 CIG 005V011 P0000 I1000 T10281039
KFNB 221422Z AUTO 10009KT 3SM -FZRA BR BKN006 OVC011 M03/M04 A3038 RMK AO2 FZRAB16 P0000 I1000 T10281039
KFNB 221353Z AUTO 09010KT 5SM BR OVC008 M03/M04 A3038 RMK AO2 UPE07FZRAB07E13 CIG 006V012 SLP300 P0000 I1001 T10281039
KFNB 221326Z AUTO 08008KT 8SM FEW005 OVC012 M03/M04 A3038 RMK AO2 UPE07FZRAB07E13 P0000 I1001 T10281044
KFNB 221319Z AUTO 09008KT 8SM BKN005 OVC012 M03/M04 A3039 RMK AO2 UPE07FZRAB07E13 CIG 004V008 P0000 I1001 T10281044
KFNB 221307Z AUTO 08009KT 4SM -FZRA BR BKN005 OVC011 M03/M04 A3039 RMK AO2 UPE07FZRAB07 P0000 I1001 T10281039
KFNB 221253Z AUTO 00000KT 2 1/2SM UP BR OVC006 M03/M04 A3041 RMK AO2 UPB01E29B48SNB00E01B02E03B29E48 CIG 004V008 SLP309 P0000 T10331039
KFNB 221243Z AUTO 05003KT 2 1/2SM -SN BR OVC008 M03/M04 A3041 RMK AO2 UPB01E29SNB00E01B02E03B29 CIG 005V010 P0000 T10331044
KFNB 221223Z AUTO 02004KT 1 3/4SM UP BR OVC009 M03/M04 A3041 RMK AO2 UPB01SNB00E01B02E03 P0000 T10331044
KFNB 221214Z AUTO 36003KT 5SM UP BR OVC009 M03/M04 A3042 RMK AO2 UPB01SNB00E01B02E03 P0000 T10331044
KFNB 221203Z AUTO 00000KT 4SM UP BR OVC010 M03/M04 A3042 RMK AO2 UPB01SNB00E01B02E03 CIG 007V014 P0000 T10331044
KFNB 221153Z AUTO 06004KT 2 1/2SM BR OVC010 M04/M04 A3041 RMK AO2 UPE39 SLP311 6//// 7//// I1000 I6001 T10391044 11033 21044 55004
KFNB 221140Z AUTO 02004KT 4SM BR OVC010 M04/M05 A3042 RMK AO2 UPE39 CIG 008V012 I1000 T10391050
KFNB 221112Z AUTO 03004KT 4SM UP BR BKN008 OVC017 M04/M05 A3041 RMK AO2 T10391050 PNO
KFNB 221053Z AUTO 06004KT 3SM UP BR SCT008 BKN017 OVC050 M04/M05 A3040 RMK AO2 UPE13B48FZRAB13E48 SLP306 I1001 T10391050 PNO $
KFNB 221048Z AUTO 05008KT 3SM UP BR FEW008 BKN017 OVC049 M04/M05 A3039 RMK AO2 UPE13B48FZRAB13E48 I1001 PNO $
KFNB 221038Z AUTO 06009KT 3SM FZRA BR FEW008 SCT017 OVC049 M04/M06 A3039 RMK AO2 UPE13FZRAB13 I1001 T10391056 PNO $
KFNB 221023Z AUTO 07007KT 3SM FZRA BR OVC017 M04/M06 A3041 RMK AO2 UPE13FZRAB13 P0000 I1001 T10441056
KFNB 221013Z AUTO 07007KT 2 1/2SM -FZRA BR OVC019 M04/M06 A3042 RMK AO2 UPE13FZRAB13 P0000 I1001 T10441056
KFNB 220953Z AUTO 05006KT 4SM UP BR OVC021 M04/M06 A3042 RMK AO2 UPB0859E03B15SNE0859B03E15 SLP316 P0000 T10441056
KFNB 220923Z AUTO 07008KT 4SM UP BR FEW010 BKN022 OVC039 M04/M06 A3042 RMK AO2 UPB0859E03B15SNE0859B03E15 P0000 T10441056
KFNB 220913Z AUTO 06007KT 3SM -SN BR FEW013 SCT020 OVC037 M04/M06 A3042 RMK AO2 UPB0859E03SNE0859B03 P0000 T10441061
KFNB 220857Z AUTO 07008KT 2 1/2SM -SN BR SCT015 SCT026 OVC031 M04/M06 A3042 RMK AO2 P0000 T10391056
KFNB 220853Z AUTO 06009KT 4SM -SN BR FEW013 SCT019 OVC028 M04/M06 A3043 RMK AO2 UPE11B39E49FZRAB11E14SNB14E39B49 SLP316 P0000 60000 I1000 I3000 T10391056 58023
KFNB 220753Z AUTO 05008KT 9SM UP OVC027 M04/M06 A3045 RMK AO2 UPB0654E33B42SNE0654B33E42 SLP325 P0000 I1000 T10391061
KFNB 220738Z AUTO 06008KT 7SM -SN OVC029 M04/M06 A3045 RMK AO2 UPB0654E33SNE0654B33 P0000 T10391061
KFNB 220653Z AUTO 06009KT 7SM -SN OVC038 M04/M06 A3047 RMK AO2 UPE0554SNB0554 SLP330 P0000 T10391061
KFNB 220625Z AUTO 05007KT 3SM -SN BR BKN042 OVC050 M04/M06 A3048 RMK AO2 UPE0554SNB0554 P0000 T10391061
KFNB 220617Z AUTO 05008KT 2 1/2SM -SN SCT036 OVC050 M03/M06 A3048 RMK AO2 UPE0554SNB0554 P0000 T10331061
KFNB 220553Z AUTO 05004KT 9SM UP BKN050 OVC060 M03/M07 A3050 RMK AO2 UPB39SNB38E39B40E48 PRESRR SLP340 P0000 60000 T10331067 11022 21033 410221117 55003
KFNB 220453Z AUTO 05006KT 10SM OVC070 M03/M07 A3048 RMK AO2 SLP336 T10281067
KFNB 220353Z AUTO 06010KT 10SM OVC090 M03/M06 A3046 RMK AO2 SLP328 T10281061
KFNB 212353Z AUTO 04007KT 10SM OVC100 M02/M07 A3054 RMK AO2 SLP356 T10221072 11022 21067 55001
KFNB 212253Z AUTO 04007KT 10SM OVC110 M02/M08 A3053 RMK AO2 SLP353 T10221078
KFNB 212153Z AUTO 06008KT 10SM FEW120 M03/M09 A3053 RMK AO2 SLP353 T10281089
KFNB 212053Z AUTO 03008KT 360V060 10SM CLR M03/M09 A3054 RMK AO2 SLP357 T10281089 56026
KFNB 211953Z AUTO 02010KT 10SM CLR M04/M10 A3055 RMK AO2 SLP361 T10391100
KFNB 211853Z AUTO 02007KT 10SM CLR M05/M11 A3060 RMK AO2 SLP377 T10501111